Terminal Aerodrome Forecast
Issued by NWS

Home | Current Version | Previous Version | Text Only | Print | Product List | Glossary On
Versions: 1 2 3 4 5 6 7 8 9 10 11 12 13 14 15 16 17 18 19 20 21 22 23 24 25 26 27 28 29 30 31 32 33 34 35 36 37 38 39 40 41
000
FTUS43 KGLD 060522
TAFMCK
TAF
KMCK 060522Z 0606/0706 15016KT P6SM OVC014 WS004/15050KT
     FM060800 12012KT 5SM BR OVC008 WS004/15050KT
     FM061200 12010KT 5SM BR OVC008
     FM061800 17015KT P6SM OVC015
     FM062000 18015KT P6SM SCT025 OVC120
     FM070400 30010KT P6SM OVC090=

USA.gov is the U.S. government's official web portal to all federal, state and local government web resources and services.